sensor_id;sensor_type;location;lat;lon;timestamp;pressure;altitude;pressure_sealevel;temperature;humidity
50250;BME280;36133;42.522;27.456;2022-10-29T00:02:06;102621.47;;;13.90;70.76
50250;BME280;36133;42.522;27.456;2022-10-29T00:04:31;101980.38;;;10.01;71.76
50250;BME280;36133;42.522;27.456;2022-10-29T00:06:57;102041.34;;;10.39;71.47
50250;BME280;36133;42.522;27.456;2022-10-29T00:09:23;102025.88;;;10.14;71.76
50250;BME280;36133;42.522;27.456;2022-10-29T00:11:51;102616.25;;;13.62;72.52
50250;BME280;36133;42.522;27.456;2022-10-29T00:14:20;102017.84;;;10.04;71.64
50250;BME280;36133;42.522;27.456;2022-10-29T00:16:46;102501.84;;;13.15;72.09
50250;BME280;36133;42.522;27.456;2022-10-29T00:19:16;102034.25;;;10.38;71.27
50250;BME280;36133;42.522;27.456;2022-10-29T00:21:45;102292.97;;;11.96;71.63
50250;BME280;36133;42.522;27.456;2022-10-29T00:24:11;102207.63;;;11.40;71.19
50250;BME280;36133;42.522;27.456;2022-10-29T00:26:37;101986.66;;;10.19;71.01
50250;BME280;36133;42.522;27.456;2022-10-29T00:29:05;102058.78;;;10.80;69.87
50250;BME280;36133;42.522;27.456;2022-10-29T00:31:31;102370.44;;;12.41;71.14
50250;BME280;36133;42.522;27.456;2022-10-29T00:34:05;101982.09;;;10.02;70.40
50250;BME280;36133;42.522;27.456;2022-10-29T00:36:31;101985.25;;;10.15;69.83
50250;BME280;36133;42.522;27.456;2022-10-29T00:38:57;102028.66;;;10.32;70.64
50250;BME280;36133;42.522;27.456;2022-10-29T00:41:26;102197.81;;;11.39;71.02
50250;BME280;36133;42.522;27.456;2022-10-29T00:46:51;102225.19;;;11.62;70.50
50250;BME280;36133;42.522;27.456;2022-10-29T00:49:20;102569.72;;;13.49;72.03
50250;BME280;36133;42.522;27.456;2022-10-29T00:51:49;102578.47;;;13.69;71.51
50250;BME280;36133;42.522;27.456;2022-10-29T00:54:16;102565.53;;;13.63;72.05
50250;BME280;36133;42.522;27.456;2022-10-29T00:56:58;102573.84;;;13.27;72.75
50250;BME280;36133;42.522;27.456;2022-10-29T00:59:25;102413.22;;;12.55;73.36
50250;BME280;36133;42.522;27.456;2022-10-29T01:01:51;102193.78;;;11.43;72.26
50250;BME280;36133;42.522;27.456;2022-10-29T01:04:25;102108.19;;;10.91;72.02
50250;BME280;36133;42.522;27.456;2022-10-29T01:06:51;102135.75;;;10.94;72.51
50250;BME280;36133;42.522;27.456;2022-10-29T01:09:20;101993.16;;;10.26;71.55
50250;BME280;36133;42.522;27.456;2022-10-29T01:18:28;101957.06;;;10.27;71.41
50250;BME280;36133;42.522;27.456;2022-10-29T01:31:38;102528.63;;;13.36;72.81
50250;BME280;36133;42.522;27.456;2022-10-29T01:50:58;102344.00;;;11.56;74.61
50250;BME280;36133;42.522;27.456;2022-10-29T01:53:33;102349.34;;;11.65;73.75
50250;BME280;36133;42.522;27.456;2022-10-29T01:56:02;102361.94;;;11.57;74.04
50250;BME280;36133;42.522;27.456;2022-10-29T01:58:29;102335.75;;;11.57;73.54
50250;BME280;36133;42.522;27.456;2022-10-29T02:11:24;102512.25;;;12.50;73.14
50250;BME280;36133;42.522;27.456;2022-10-29T02:14:22;101966.25;;;9.17;73.20
50250;BME280;36133;42.522;27.456;2022-10-29T02:20:13;102234.13;;;10.83;73.27
50250;BME280;36133;42.522;27.456;2022-10-29T02:26:06;102156.13;;;10.25;73.43
50250;BME280;36133;42.522;27.456;2022-10-29T02:31:54;102245.44;;;10.69;73.99
50250;BME280;36133;42.522;27.456;2022-10-29T02:34:20;102074.34;;;9.60;73.00
50250;BME280;36133;42.522;27.456;2022-10-29T02:36:46;102075.53;;;9.48;73.80
50250;BME280;36133;42.522;27.456;2022-10-29T02:39:12;102245.78;;;10.19;74.16
50250;BME280;36133;42.522;27.456;2022-10-29T02:41:40;102313.91;;;11.05;73.17
50250;BME280;36133;42.522;27.456;2022-10-29T02:44:06;101961.69;;;8.80;72.87
50250;BME280;36133;42.522;27.456;2022-10-29T02:46:34;102174.38;;;10.04;72.21
50250;BME280;36133;42.522;27.456;2022-10-29T02:49:08;102396.34;;;11.19;73.75
50250;BME280;36133;42.522;27.456;2022-10-29T02:51:36;102502.66;;;12.02;73.87
50250;BME280;36133;42.522;27.456;2022-10-29T02:54:05;102538.75;;;11.93;74.25
50250;BME280;36133;42.522;27.456;2022-10-29T02:56:31;102050.75;;;9.35;73.22
50250;BME280;36133;42.522;27.456;2022-10-29T02:59:03;102375.59;;;11.37;74.07
50250;BME280;36133;42.522;27.456;2022-10-29T03:01:34;102087.03;;;9.40;73.86
50250;BME280;36133;42.522;27.456;2022-10-29T03:07:24;102329.34;;;11.13;73.80
50250;BME280;36133;42.522;27.456;2022-10-29T03:09:50;102297.78;;;10.68;74.29
50250;BME280;36133;42.522;27.456;2022-10-29T03:12:16;101949.84;;;8.54;74.63
50250;BME280;36133;42.522;27.456;2022-10-29T03:14:44;102191.91;;;9.90;74.76
50250;BME280;36133;42.522;27.456;2022-10-29T03:17:12;102184.75;;;10.09;74.42
50250;BME280;36133;42.522;27.456;2022-10-29T03:19:42;102370.09;;;11.02;74.83
50250;BME280;36133;42.522;27.456;2022-10-29T03:22:08;102385.97;;;10.87;75.23
50250;BME280;36133;42.522;27.456;2022-10-29T03:24:34;101972.94;;;8.46;74.92
50250;BME280;36133;42.522;27.456;2022-10-29T03:27:09;102116.31;;;9.16;75.67
50250;BME280;36133;42.522;27.456;2022-10-29T03:29:43;102314.88;;;10.59;74.34
50250;BME280;36133;42.522;27.456;2022-10-29T03:32:38;102288.75;;;10.50;73.79
50250;BME280;36133;42.522;27.456;2022-10-29T03:38:29;101963.16;;;8.16;74.11
50250;BME280;36133;42.522;27.456;2022-10-29T03:44:24;102518.09;;;11.00;74.97
50250;BME280;36133;42.522;27.456;2022-10-29T03:57:35;102491.75;;;11.02;74.86
50250;BME280;36133;42.522;27.456;2022-10-29T04:03:59;102499.75;;;10.94;75.35
50250;BME280;36133;42.522;27.456;2022-10-29T04:09:52;102021.31;;;7.98;75.14
50250;BME280;36133;42.522;27.456;2022-10-29T04:15:52;101971.03;;;7.70;76.57
50250;BME280;36133;42.522;27.456;2022-10-29T04:21:51;102375.63;;;10.16;76.45
50250;BME280;36133;42.522;27.456;2022-10-29T04:27:46;101883.50;;;7.37;76.83
50250;BME280;36133;42.522;27.456;2022-10-29T04:40:33;102494.69;;;11.73;76.13
50250;BME280;36133;42.522;27.456;2022-10-29T04:46:34;102112.75;;;9.35;75.90
50250;BME280;36133;42.522;27.456;2022-10-29T04:52:23;102073.75;;;9.20;76.00
50250;BME280;36133;42.522;27.456;2022-10-29T05:01:38;101916.00;;;8.51;76.96
50250;BME280;36133;42.522;27.456;2022-10-29T05:07:29;102062.47;;;9.44;75.83
50250;BME280;36133;42.522;27.456;2022-10-29T05:09:54;102505.06;;;11.78;76.62
50250;BME280;36133;42.522;27.456;2022-10-29T05:15:52;102291.41;;;10.60;75.63
50250;BME280;36133;42.522;27.456;2022-10-29T05:18:19;102040.34;;;8.93;75.24
50250;BME280;36133;42.522;27.456;2022-10-29T05:20:44;101943.72;;;8.32;74.43
50250;BME280;36133;42.522;27.456;2022-10-29T05:23:11;102023.97;;;9.51;73.35
50250;BME280;36133;42.522;27.456;2022-10-29T05:25:40;102172.72;;;10.58;73.10
50250;BME280;36133;42.522;27.456;2022-10-29T05:28:10;101996.25;;;9.31;73.96
50250;BME280;36133;42.522;27.456;2022-10-29T05:30:37;102347.38;;;11.22;74.74
50250;BME280;36133;42.522;27.456;2022-10-29T05:33:07;102210.13;;;10.53;75.16
50250;BME280;36133;42.522;27.456;2022-10-29T05:35:41;102025.94;;;9.59;73.99
50250;BME280;36133;42.522;27.456;2022-10-29T05:38:13;102017.13;;;9.29;75.06
50250;BME280;36133;42.522;27.456;2022-10-29T05:40:39;101986.53;;;8.74;76.65
50250;BME280;36133;42.522;27.456;2022-10-29T05:43:15;101997.38;;;9.01;75.92
50250;BME280;36133;42.522;27.456;2022-10-29T05:45:44;102297.69;;;11.05;75.08
50250;BME280;36133;42.522;27.456;2022-10-29T05:48:17;102531.91;;;12.34;76.24
50250;BME280;36133;42.522;27.456;2022-10-29T05:50:44;102530.22;;;12.15;76.01
50250;BME280;36133;42.522;27.456;2022-10-29T05:53:46;102534.41;;;12.27;76.60
50250;BME280;36133;42.522;27.456;2022-10-29T05:59:36;102317.69;;;10.95;76.10
50250;BME280;36133;42.522;27.456;2022-10-29T06:05:26;102032.59;;;10.10;74.63
50250;BME280;36133;42.522;27.456;2022-10-29T06:11:18;102535.19;;;13.67;71.90
50250;BME280;36133;42.522;27.456;2022-10-29T06:13:47;102231.34;;;12.58;69.12
50250;BME280;36133;42.522;27.456;2022-10-29T06:16:14;102230.94;;;12.37;69.33
50250;BME280;36133;42.522;27.456;2022-10-29T06:25:25;102394.81;;;13.43;68.60
50250;BME280;36133;42.522;27.456;2022-10-29T06:28:08;102142.09;;;12.57;65.63
50250;BME280;36133;42.522;27.456;2022-10-29T06:30:36;101988.34;;;11.34;65.99
50250;BME280;36133;42.522;27.456;2022-10-29T06:33:06;102405.59;;;13.77;66.59
50250;BME280;36133;42.522;27.456;2022-10-29T06:35:37;102003.00;;;11.23;67.19
50250;BME280;36133;42.522;27.456;2022-10-29T06:38:05;102130.88;;;11.93;66.74
50250;BME280;36133;42.522;27.456;2022-10-29T06:40:34;102026.72;;;11.37;65.81
50250;BME280;36133;42.522;27.456;2022-10-29T06:43:02;102046.69;;;11.10;68.74
50250;BME280;36133;42.522;27.456;2022-10-29T06:45:35;102290.25;;;12.48;68.97
50250;BME280;36133;42.522;27.456;2022-10-29T06:48:02;102270.25;;;12.91;67.87
50250;BME280;36133;42.522;27.456;2022-10-29T06:50:33;102234.50;;;13.04;67.12
50250;BME280;36133;42.522;27.456;2022-10-29T06:53:04;102059.38;;;12.12;66.29
50250;BME280;36133;42.522;27.456;2022-10-29T06:55:32;102204.34;;;13.15;65.69
50250;BME280;36133;42.522;27.456;2022-10-29T06:58:19;102566.06;;;15.39;64.70
50250;BME280;36133;42.522;27.456;2022-10-29T07:00:46;102105.03;;;13.47;62.07
50250;BME280;36133;42.522;27.456;2022-10-29T07:03:16;102070.38;;;14.35;59.28
50250;BME280;36133;42.522;27.456;2022-10-29T07:05:42;102096.84;;;15.25;55.29
50250;BME280;36133;42.522;27.456;2022-10-29T07:08:09;102255.47;;;18.52;49.39
50250;BME280;36133;42.522;27.456;2022-10-29T07:10:34;102265.75;;;18.85;49.65
50250;BME280;36133;42.522;27.456;2022-10-29T07:13:00;102241.66;;;20.14;45.62
50250;BME280;36133;42.522;27.456;2022-10-29T07:15:27;102285.50;;;22.43;40.96
50250;BME280;36133;42.522;27.456;2022-10-29T07:18:03;102134.09;;;20.95;42.68
50250;BME280;36133;42.522;27.456;2022-10-29T07:20:35;102395.34;;;22.44;43.39
50250;BME280;36133;42.522;27.456;2022-10-29T07:23:04;102391.41;;;20.68;46.84
50250;BME280;36133;42.522;27.456;2022-10-29T07:25:34;102409.81;;;22.58;43.10
50250;BME280;36133;42.522;27.456;2022-10-29T07:28:12;102141.47;;;21.01;43.26
50250;BME280;36133;42.522;27.456;2022-10-29T07:30:38;102205.47;;;20.57;45.44
50250;BME280;36133;42.522;27.456;2022-10-29T07:33:04;102379.25;;;21.09;46.26
50250;BME280;36133;42.522;27.456;2022-10-29T07:35:30;102348.16;;;21.21;45.92
50250;BME280;36133;42.522;27.456;2022-10-29T07:38:00;102303.63;;;20.55;46.65
50250;BME280;36133;42.522;27.456;2022-10-29T07:40:26;102386.50;;;20.96;47.24
50250;BME280;36133;42.522;27.456;2022-10-29T07:42:52;102234.91;;;20.81;45.22
50250;BME280;36133;42.522;27.456;2022-10-29T07:45:17;102524.88;;;22.05;45.79
50250;BME280;36133;42.522;27.456;2022-10-29T07:47:43;102095.13;;;20.03;44.78
50250;BME280;36133;42.522;27.456;2022-10-29T07:50:09;102072.28;;;19.25;45.92
50250;BME280;36133;42.522;27.456;2022-10-29T07:52:35;102094.44;;;20.14;44.80
50250;BME280;36133;42.522;27.456;2022-10-29T07:55:05;102410.25;;;22.98;42.55
50250;BME280;36133;42.522;27.456;2022-10-29T07:57:34;102265.34;;;23.27;40.25
50250;BME280;36133;42.522;27.456;2022-10-29T07:59:59;102577.66;;;24.43;41.08
50250;BME280;36133;42.522;27.456;2022-10-29T08:02:25;102116.31;;;21.90;41.22
50250;BME280;36133;42.522;27.456;2022-10-29T08:04:58;102386.88;;;25.15;38.43
50250;BME280;36133;42.522;27.456;2022-10-29T08:07:24;102076.50;;;22.60;39.19
50250;BME280;36133;42.522;27.456;2022-10-29T08:09:49;102378.22;;;25.51;37.50
50250;BME280;36133;42.522;27.456;2022-10-29T08:12:15;102516.41;;;26.43;37.32
50250;BME280;36133;42.522;27.456;2022-10-29T08:14:40;102164.13;;;24.16;37.38
50250;BME280;36133;42.522;27.456;2022-10-29T08:17:06;102131.88;;;24.05;37.61
50250;BME280;36133;42.522;27.456;2022-10-29T08:19:32;102356.78;;;25.30;37.88
50250;BME280;36133;42.522;27.456;2022-10-29T08:21:57;102355.94;;;25.86;36.76
50250;BME280;36133;42.522;27.456;2022-10-29T08:24:23;102360.34;;;27.91;33.44
50250;BME280;36133;42.522;27.456;2022-10-29T08:26:49;102263.56;;;27.67;32.79
50250;BME280;36133;42.522;27.456;2022-10-29T08:29:15;102379.34;;;28.09;33.02
50250;BME280;36133;42.522;27.456;2022-10-29T08:31:41;102309.53;;;29.63;30.28
50250;BME280;36133;42.522;27.456;2022-10-29T08:34:06;102178.38;;;25.39;35.42
50250;BME280;36133;42.522;27.456;2022-10-29T08:36:32;102372.78;;;29.05;32.25
50250;BME280;36133;42.522;27.456;2022-10-29T08:38:58;102164.00;;;29.37;29.76
50250;BME280;36133;42.522;27.456;2022-10-29T08:44:48;102520.97;;;32.94;27.99
50250;BME280;36133;42.522;27.456;2022-10-29T08:47:19;102343.97;;;34.01;25.52
50250;BME280;36133;42.522;27.456;2022-10-29T08:49:59;102176.84;;;32.99;25.15
50250;BME280;36133;42.522;27.456;2022-10-29T08:52:33;102524.06;;;33.45;26.96
50250;BME280;36133;42.522;27.456;2022-10-29T08:55:18;102255.44;;;31.44;27.64
50250;BME280;36133;42.522;27.456;2022-10-29T09:00:56;102131.78;;;36.00;21.79
50250;BME280;36133;42.522;27.456;2022-10-29T09:03:22;102265.38;;;37.37;21.08
50250;BME280;36133;42.522;27.456;2022-10-29T09:22:56;102478.84;;;36.33;23.16
50250;BME280;36133;42.522;27.456;2022-10-29T09:25:30;102331.59;;;37.95;21.00
50250;BME280;36133;42.522;27.456;2022-10-29T09:28:17;102195.38;;;34.48;23.29
50250;BME280;36133;42.522;27.456;2022-10-29T09:31:10;102471.09;;;39.09;20.26
50250;BME280;36133;42.522;27.456;2022-10-29T09:33:47;102202.66;;;34.07;23.53
50250;BME280;36133;42.522;27.456;2022-10-29T09:36:20;102369.25;;;35.89;23.08
50250;BME280;36133;42.522;27.456;2022-10-29T09:38:53;102299.47;;;36.53;21.57
50250;BME280;36133;42.522;27.456;2022-10-29T09:41:24;102281.25;;;32.71;26.00
50250;BME280;36133;42.522;27.456;2022-10-29T09:44:05;102298.94;;;30.11;29.20
50250;BME280;36133;42.522;27.456;2022-10-29T09:47:14;102237.41;;;32.66;26.24
50250;BME280;36133;42.522;27.456;2022-10-29T09:50:12;102454.25;;;31.20;29.11
50250;BME280;36133;42.522;27.456;2022-10-29T09:52:41;102163.22;;;32.74;25.03
50250;BME280;36133;42.522;27.456;2022-10-29T09:55:16;102464.13;;;35.28;24.61
50250;BME280;36133;42.522;27.456;2022-10-29T09:57:43;102058.22;;;33.74;23.48
50250;BME280;36133;42.522;27.456;2022-10-29T10:00:20;102291.97;;;35.77;22.75
50250;BME280;36133;42.522;27.456;2022-10-29T10:05:24;102279.59;;;33.50;25.51
50250;BME280;36133;42.522;27.456;2022-10-29T10:10:53;102420.53;;;33.40;26.51
50250;BME280;36133;42.522;27.456;2022-10-29T10:13:23;101953.31;;;32.00;24.86
50250;BME280;36133;42.522;27.456;2022-10-29T10:16:03;102024.44;;;34.20;22.63
50250;BME280;36133;42.522;27.456;2022-10-29T10:18:42;102271.53;;;36.48;22.07
50250;BME280;36133;42.522;27.456;2022-10-29T10:21:08;102308.69;;;35.60;22.66
50250;BME280;36133;42.522;27.456;2022-10-29T10:23:54;102256.09;;;34.93;23.36
50250;BME280;36133;42.522;27.456;2022-10-29T10:26:45;102020.97;;;32.53;24.11
50250;BME280;36133;42.522;27.456;2022-10-29T10:29:22;102385.50;;;36.23;22.94
50250;BME280;36133;42.522;27.456;2022-10-29T10:31:49;102250.81;;;36.04;22.15
50250;BME280;36133;42.522;27.456;2022-10-29T10:34:37;101934.34;;;31.97;24.05
50250;BME280;36133;42.522;27.456;2022-10-29T10:37:15;102194.72;;;32.60;25.78
50250;BME280;36133;42.522;27.456;2022-10-29T10:39:45;102202.91;;;34.75;23.47
50250;BME280;36133;42.522;27.456;2022-10-29T10:45:01;102383.44;;;34.37;24.63
50250;BME280;36133;42.522;27.456;2022-10-29T10:47:40;102192.50;;;32.39;25.92
50250;BME280;36133;42.522;27.456;2022-10-29T10:50:28;102131.47;;;30.82;26.88
50250;BME280;36133;42.522;27.456;2022-10-29T10:52:56;101922.44;;;30.77;25.92
50250;BME280;36133;42.522;27.456;2022-10-29T10:55:33;101924.78;;;29.37;27.76
50250;BME280;36133;42.522;27.456;2022-10-29T11:00:43;101919.09;;;28.57;28.41
50250;BME280;36133;42.522;27.456;2022-10-29T11:03:16;102176.09;;;32.08;26.95
50250;BME280;36133;42.522;27.456;2022-10-29T11:06:09;102081.69;;;31.04;27.34
50250;BME280;36133;42.522;27.456;2022-10-29T11:08:52;102348.69;;;34.66;24.77
50250;BME280;36133;42.522;27.456;2022-10-29T11:12:14;102215.78;;;31.47;27.18
50250;BME280;36133;42.522;27.456;2022-10-29T11:14:37;102051.38;;;29.24;29.42
50250;BME280;36133;42.522;27.456;2022-10-29T11:20:27;101909.50;;;32.33;24.82
50250;BME280;36133;42.522;27.456;2022-10-29T11:26:16;101903.72;;;26.58;31.78
50250;BME280;36133;42.522;27.456;2022-10-29T11:31:24;101880.53;;;27.17;30.40
50250;BME280;36133;42.522;27.456;2022-10-29T11:33:57;101895.91;;;27.55;30.29
50250;BME280;36133;42.522;27.456;2022-10-29T11:42:07;101850.84;;;31.82;24.89
50250;BME280;36133;42.522;27.456;2022-10-29T11:44:37;102156.34;;;32.47;26.52
50250;BME280;36133;42.522;27.456;2022-10-29T11:52:39;101798.28;;;30.89;25.32
50250;BME280;36133;42.522;27.456;2022-10-29T12:00:21;101873.66;;;31.27;25.95
50250;BME280;36133;42.522;27.456;2022-10-29T12:06:08;102245.06;;;33.55;25.68
50250;BME280;36133;42.522;27.456;2022-10-29T12:17:06;102269.25;;;35.43;23.65
50250;BME280;36133;42.522;27.456;2022-10-29T12:19:49;102273.44;;;34.95;24.34
50250;BME280;36133;42.522;27.456;2022-10-29T12:22:43;102272.59;;;30.62;29.80
50250;BME280;36133;42.522;27.456;2022-10-29T12:28:21;101873.53;;;28.73;29.71
50250;BME280;36133;42.522;27.456;2022-10-29T12:31:10;102236.06;;;32.16;28.09
50250;BME280;36133;42.522;27.456;2022-10-29T12:33:56;102018.47;;;28.19;30.47
50250;BME280;36133;42.522;27.456;2022-10-29T12:36:42;102268.47;;;31.54;28.98
50250;BME280;36133;42.522;27.456;2022-10-29T12:39:21;102152.75;;;30.08;30.16
50250;BME280;36133;42.522;27.456;2022-10-29T12:41:56;101892.75;;;27.26;31.69
50250;BME280;36133;42.522;27.456;2022-10-29T12:44:40;101993.97;;;27.81;31.70
50250;BME280;36133;42.522;27.456;2022-10-29T12:53:01;102128.31;;;30.49;29.32
50250;BME280;36133;42.522;27.456;2022-10-29T12:55:32;101856.44;;;26.75;32.10
50250;BME280;36133;42.522;27.456;2022-10-29T13:01:02;102063.38;;;27.96;32.31
50250;BME280;36133;42.522;27.456;2022-10-29T13:04:19;102244.69;;;29.83;32.27
50250;BME280;36133;42.522;27.456;2022-10-29T13:06:55;101925.72;;;28.10;31.41
50250;BME280;36133;42.522;27.456;2022-10-29T13:09:34;101869.63;;;26.25;32.73
50250;BME280;36133;42.522;27.456;2022-10-29T13:12:08;101834.50;;;26.26;33.00
50250;BME280;36133;42.522;27.456;2022-10-29T13:14:51;102265.53;;;29.95;31.57
50250;BME280;36133;42.522;27.456;2022-10-29T13:17:33;102074.78;;;26.78;35.23
50250;BME280;36133;42.522;27.456;2022-10-29T13:27:53;101731.97;;;24.93;35.22
50250;BME280;36133;42.522;27.456;2022-10-29T13:30:24;102204.38;;;28.41;34.49
50250;BME280;36133;42.522;27.456;2022-10-29T13:32:54;101976.50;;;27.95;32.64
50250;BME280;36133;42.522;27.456;2022-10-29T13:40:55;102028.16;;;26.70;35.67
50250;BME280;36133;42.522;27.456;2022-10-29T13:43:26;101854.91;;;25.34;35.78
50250;BME280;36133;42.522;27.456;2022-10-29T13:46:23;102210.22;;;27.01;37.11
50250;BME280;36133;42.522;27.456;2022-10-29T13:48:46;102156.63;;;26.64;37.63
50250;BME280;36133;42.522;27.456;2022-10-29T13:51:21;102091.25;;;25.36;38.64
50250;BME280;36133;42.522;27.456;2022-10-29T13:53:56;101988.63;;;24.61;39.81
50250;BME280;36133;42.522;27.456;2022-10-29T13:56:32;101962.00;;;24.88;38.21
50250;BME280;36133;42.522;27.456;2022-10-29T13:59:01;101696.44;;;23.30;38.88
50250;BME280;36133;42.522;27.456;2022-10-29T14:01:31;101632.31;;;23.34;37.69
50250;BME280;36133;42.522;27.456;2022-10-29T14:04:15;102063.63;;;24.41;40.29
50250;BME280;36133;42.522;27.456;2022-10-29T14:06:55;101845.31;;;20.86;45.48
50250;BME280;36133;42.522;27.456;2022-10-29T14:09:42;101627.38;;;19.41;45.79
50250;BME280;36133;42.522;27.456;2022-10-29T14:12:20;101879.44;;;19.66;49.42
50250;BME280;36133;42.522;27.456;2022-10-29T14:15:12;101774.13;;;18.59;50.63
50250;BME280;36133;42.522;27.456;2022-10-29T14:17:39;101926.09;;;19.39;51.05
50250;BME280;36133;42.522;27.456;2022-10-29T14:20:25;101803.00;;;18.15;53.03
50250;BME280;36133;42.522;27.456;2022-10-29T14:22:52;102011.91;;;19.84;52.34
50250;BME280;36133;42.522;27.456;2022-10-29T14:28:18;102202.84;;;20.10;54.96
50250;BME280;36133;42.522;27.456;2022-10-29T14:30:45;101831.91;;;17.56;56.07
50250;BME280;36133;42.522;27.456;2022-10-29T14:33:22;101628.81;;;16.37;55.12
50250;BME280;36133;42.522;27.456;2022-10-29T14:35:48;101658.72;;;16.72;54.84
50250;BME280;36133;42.522;27.456;2022-10-29T14:38:30;101636.13;;;15.95;57.18
50250;BME280;36133;42.522;27.456;2022-10-29T14:41:01;102216.34;;;20.18;55.03
50250;BME280;36133;42.522;27.456;2022-10-29T14:43:29;101861.09;;;17.49;56.54
50250;BME280;36133;42.522;27.456;2022-10-29T14:46:24;101659.22;;;16.47;56.62
50250;BME280;36133;42.522;27.456;2022-10-29T14:49:00;101649.56;;;16.86;54.95
50250;BME280;36133;42.522;27.456;2022-10-29T14:51:37;101795.66;;;17.69;55.38
50250;BME280;36133;42.522;27.456;2022-10-29T14:54:06;101646.28;;;16.49;55.79
50250;BME280;36133;42.522;27.456;2022-10-29T14:56:37;101934.00;;;17.49;57.47
50250;BME280;36133;42.522;27.456;2022-10-29T14:59:24;101826.72;;;17.07;57.47
50250;BME280;36133;42.522;27.456;2022-10-29T15:01:51;102205.97;;;18.88;59.31
50250;BME280;36133;42.522;27.456;2022-10-29T15:04:20;101817.81;;;16.57;59.32
50250;BME280;36133;42.522;27.456;2022-10-29T15:06:46;101947.84;;;17.54;58.54
50250;BME280;36133;42.522;27.456;2022-10-29T15:09:14;101693.16;;;15.69;58.96
50250;BME280;36133;42.522;27.456;2022-10-29T15:11:58;101755.22;;;16.08;59.26
50250;BME280;36133;42.522;27.456;2022-10-29T15:14:32;101845.25;;;17.18;57.61
50250;BME280;36133;42.522;27.456;2022-10-29T15:16:59;102201.75;;;18.79;59.37
50250;BME280;36133;42.522;27.456;2022-10-29T15:19:25;101878.13;;;16.97;58.84
50250;BME280;36133;42.522;27.456;2022-10-29T15:21:52;102057.81;;;18.17;57.94
50250;BME280;36133;42.522;27.456;2022-10-29T15:24:23;101605.41;;;15.45;57.79
50250;BME280;36133;42.522;27.456;2022-10-29T15:26:57;101589.69;;;14.91;58.90
50250;BME280;36133;42.522;27.456;2022-10-29T15:29:28;101827.91;;;16.29;59.08
50250;BME280;36133;42.522;27.456;2022-10-29T15:31:58;101711.66;;;15.37;59.28
50250;BME280;36133;42.522;27.456;2022-10-29T15:34:34;101722.19;;;15.40;60.33
50250;BME280;36133;42.522;27.456;2022-10-29T15:40:17;102209.56;;;18.41;59.95
50250;BME280;36133;42.522;27.456;2022-10-29T15:42:46;102193.88;;;18.63;59.09
50250;BME280;36133;42.522;27.456;2022-10-29T15:50:10;101760.56;;;15.88;59.08
50250;BME280;36133;42.522;27.456;2022-10-29T15:52:42;101994.06;;;17.49;58.40
50250;BME280;36133;42.522;27.456;2022-10-29T15:55:23;102059.53;;;17.70;59.62
50250;BME280;36133;42.522;27.456;2022-10-29T15:57:49;101926.75;;;16.16;61.51
50250;BME280;36133;42.522;27.456;2022-10-29T16:00:18;101858.53;;;16.31;60.22
50250;BME280;36133;42.522;27.456;2022-10-29T16:02:45;102058.19;;;17.60;60.22
50250;BME280;36133;42.522;27.456;2022-10-29T16:05:12;101848.06;;;16.06;60.34
50250;BME280;36133;42.522;27.456;2022-10-29T16:07:38;102023.88;;;17.16;60.46
50250;BME280;36133;42.522;27.456;2022-10-29T16:10:05;101953.94;;;16.80;60.15
50250;BME280;36133;42.522;27.456;2022-10-29T16:12:35;102171.63;;;18.25;60.58
50250;BME280;36133;42.522;27.456;2022-10-29T16:15:01;101696.84;;;15.18;60.11
50250;BME280;36133;42.522;27.456;2022-10-29T16:17:27;101772.94;;;15.12;62.06
50250;BME280;36133;42.522;27.456;2022-10-29T16:19:52;101752.69;;;15.57;60.84
50250;BME280;36133;42.522;27.456;2022-10-29T16:22:25;102052.94;;;17.58;59.82
50250;BME280;36133;42.522;27.456;2022-10-29T16:24:51;101751.72;;;15.86;59.11
50250;BME280;36133;42.522;27.456;2022-10-29T16:27:17;101740.78;;;16.07;58.54
50250;BME280;36133;42.522;27.456;2022-10-29T16:29:43;102012.38;;;17.20;59.53
50250;BME280;36133;42.522;27.456;2022-10-29T16:32:20;101706.19;;;15.52;59.48
50250;BME280;36133;42.522;27.456;2022-10-29T16:34:46;102185.19;;;18.05;60.69
50250;BME280;36133;42.522;27.456;2022-10-29T16:37:14;102223.09;;;18.56;60.26
50250;BME280;36133;42.522;27.456;2022-10-29T16:39:41;101714.63;;;15.85;58.42
50250;BME280;36133;42.522;27.456;2022-10-29T16:42:18;102017.72;;;17.70;58.54
50250;BME280;36133;42.522;27.456;2022-10-29T16:44:46;101770.00;;;15.92;58.72
50250;BME280;36133;42.522;27.456;2022-10-29T16:47:12;102015.19;;;16.78;61.11
50250;BME280;36133;42.522;27.456;2022-10-29T16:49:38;102014.75;;;17.02;61.36
50250;BME280;36133;42.522;27.456;2022-10-29T16:52:07;102063.00;;;17.23;60.73
50250;BME280;36133;42.522;27.456;2022-10-29T16:54:33;101764.00;;;15.75;59.59
50250;BME280;36133;42.522;27.456;2022-10-29T16:56:59;101996.09;;;16.14;63.28
50250;BME280;36133;42.522;27.456;2022-10-29T16:59:24;102046.06;;;17.34;60.29
50250;BME280;36133;42.522;27.456;2022-10-29T17:01:50;102251.19;;;18.78;59.19
50250;BME280;36133;42.522;27.456;2022-10-29T17:04:15;101911.91;;;16.96;58.47
50250;BME280;36133;42.522;27.456;2022-10-29T17:06:41;101808.63;;;16.30;58.61
50250;BME280;36133;42.522;27.456;2022-10-29T17:09:06;101953.75;;;17.16;58.21
50250;BME280;36133;42.522;27.456;2022-10-29T17:11:32;101651.84;;;15.16;58.48
50250;BME280;36133;42.522;27.456;2022-10-29T17:13:57;101900.97;;;16.40;59.13
50250;BME280;36133;42.522;27.456;2022-10-29T17:16:23;101841.53;;;16.29;59.12